Dawson, Alabama
Current Conditions -  °F | °C
As of 8:55 AM on Sunday 21 Dec 2014 (Local Time) from K4A9 Reporting Station
Overcast Overcast  
Wind Chill: 37°   Ceiling: 3300
Heat Index: 41°   Visibility: 7mi
Dew Point: 34°   Wind: 6mph
Humidity: 76%   Direction: 30°NNE
Pressure: 30.2"   Gusts: NA
Location:  34.3°N, 85.93°W
Report Text: K4A9 211455Z AUTO 03005KT 7SM OVC033 05/01 A3020 RMK AO2
Loading
Personal Weather Stations






























Interactive Weather Map New forecast layout! Learn more

10-Day Weather Forecast

Advertisements
Track Severe Weather on mobile